sensor_id;sensor_type;location;lat;lon;timestamp;P1;durP1;ratioP1;P2;durP2;ratioP2
20073;SDS011;10197;54.282;10.078;2023-04-24T00:01:07;7.82;;;6.97;;
20073;SDS011;10197;54.282;10.078;2023-04-24T00:03:34;7.10;;;6.40;;
20073;SDS011;10197;54.282;10.078;2023-04-24T00:06:01;8.10;;;7.03;;
20073;SDS011;10197;54.282;10.078;2023-04-24T00:08:28;9.57;;;8.13;;
20073;SDS011;10197;54.282;10.078;2023-04-24T00:10:55;10.20;;;8.68;;
20073;SDS011;10197;54.282;10.078;2023-04-24T00:13:23;8.25;;;7.45;;
20073;SDS011;10197;54.282;10.078;2023-04-24T00:15:54;11.00;;;7.78;;
20073;SDS011;10197;54.282;10.078;2023-04-24T00:18:21;8.15;;;7.35;;
20073;SDS011;10197;54.282;10.078;2023-04-24T00:20:48;9.20;;;8.20;;
20073;SDS011;10197;54.282;10.078;2023-04-24T00:23:15;8.55;;;7.75;;
20073;SDS011;10197;54.282;10.078;2023-04-24T00:25:42;8.13;;;7.32;;
20073;SDS011;10197;54.282;10.078;2023-04-24T00:28:09;9.57;;;8.63;;
20073;SDS011;10197;54.282;10.078;2023-04-24T00:30:36;9.77;;;8.27;;
20073;SDS011;10197;54.282;10.078;2023-04-24T00:33:05;9.93;;;8.93;;
20073;SDS011;10197;54.282;10.078;2023-04-24T00:35:32;9.20;;;8.30;;
20073;SDS011;10197;54.282;10.078;2023-04-24T00:38:00;9.65;;;8.40;;
20073;SDS011;10197;54.282;10.078;2023-04-24T00:40:28;9.25;;;8.35;;
20073;SDS011;10197;54.282;10.078;2023-04-24T00:42:55;8.98;;;8.18;;
20073;SDS011;10197;54.282;10.078;2023-04-24T00:45:22;8.73;;;7.93;;
20073;SDS011;10197;54.282;10.078;2023-04-24T00:47:49;9.18;;;8.27;;
20073;SDS011;10197;54.282;10.078;2023-04-24T00:50:20;9.65;;;8.65;;
20073;SDS011;10197;54.282;10.078;2023-04-24T00:52:47;9.02;;;8.13;;
20073;SDS011;10197;54.282;10.078;2023-04-24T00:55:14;9.63;;;8.52;;
20073;SDS011;10197;54.282;10.078;2023-04-24T00:57:43;9.85;;;8.05;;
20073;SDS011;10197;54.282;10.078;2023-04-24T01:00:13;9.07;;;8.10;;
20073;SDS011;10197;54.282;10.078;2023-04-24T01:02:42;10.02;;;7.70;;
20073;SDS011;10197;54.282;10.078;2023-04-24T01:05:10;8.15;;;7.35;;
20073;SDS011;10197;54.282;10.078;2023-04-24T01:07:40;8.73;;;7.03;;
20073;SDS011;10197;54.282;10.078;2023-04-24T01:10:09;8.93;;;6.90;;
20073;SDS011;10197;54.282;10.078;2023-04-24T01:12:36;7.28;;;6.55;;
20073;SDS011;10197;54.282;10.078;2023-04-24T01:15:04;7.80;;;7.00;;
20073;SDS011;10197;54.282;10.078;2023-04-24T01:17:31;7.45;;;6.45;;
20073;SDS011;10197;54.282;10.078;2023-04-24T01:19:59;7.60;;;6.88;;
20073;SDS011;10197;54.282;10.078;2023-04-24T01:22:27;6.80;;;6.10;;
20073;SDS011;10197;54.282;10.078;2023-04-24T01:24:54;6.43;;;5.82;;
20073;SDS011;10197;54.282;10.078;2023-04-24T01:27:22;6.20;;;5.30;;
20073;SDS011;10197;54.282;10.078;2023-04-24T01:29:49;5.30;;;4.85;;
20073;SDS011;10197;54.282;10.078;2023-04-24T01:32:17;6.25;;;5.65;;
20073;SDS011;10197;54.282;10.078;2023-04-24T01:34:44;7.05;;;6.13;;
20073;SDS011;10197;54.282;10.078;2023-04-24T01:37:11;8.32;;;6.30;;
20073;SDS011;10197;54.282;10.078;2023-04-24T01:39:39;7.53;;;6.15;;
20073;SDS011;10197;54.282;10.078;2023-04-24T01:42:07;7.53;;;6.15;;
20073;SDS011;10197;54.282;10.078;2023-04-24T01:44:34;9.73;;;6.88;;
20073;SDS011;10197;54.282;10.078;2023-04-24T01:47:02;7.97;;;6.07;;
20073;SDS011;10197;54.282;10.078;2023-04-24T01:49:30;7.18;;;6.40;;
20073;SDS011;10197;54.282;10.078;2023-04-24T01:51:56;8.02;;;6.35;;
20073;SDS011;10197;54.282;10.078;2023-04-24T01:54:23;7.25;;;5.78;;
20073;SDS011;10197;54.282;10.078;2023-04-24T01:56:52;6.85;;;6.18;;
20073;SDS011;10197;54.282;10.078;2023-04-24T01:59:20;8.05;;;6.72;;
20073;SDS011;10197;54.282;10.078;2023-04-24T02:01:47;5.97;;;5.47;;
20073;SDS011;10197;54.282;10.078;2023-04-24T02:04:14;8.18;;;5.95;;
20073;SDS011;10197;54.282;10.078;2023-04-24T02:06:42;8.30;;;6.53;;
20073;SDS011;10197;54.282;10.078;2023-04-24T02:09:09;6.43;;;5.60;;
20073;SDS011;10197;54.282;10.078;2023-04-24T02:11:36;6.93;;;6.22;;
20073;SDS011;10197;54.282;10.078;2023-04-24T02:14:04;6.90;;;6.10;;
20073;SDS011;10197;54.282;10.078;2023-04-24T02:16:31;7.00;;;6.18;;
20073;SDS011;10197;54.282;10.078;2023-04-24T02:18:59;6.72;;;6.07;;
20073;SDS011;10197;54.282;10.078;2023-04-24T02:21:26;6.80;;;6.10;;
20073;SDS011;10197;54.282;10.078;2023-04-24T02:23:53;6.63;;;6.00;;
20073;SDS011;10197;54.282;10.078;2023-04-24T02:26:20;7.10;;;6.32;;
20073;SDS011;10197;54.282;10.078;2023-04-24T02:28:47;7.20;;;6.50;;
20073;SDS011;10197;54.282;10.078;2023-04-24T02:31:16;7.50;;;6.70;;
20073;SDS011;10197;54.282;10.078;2023-04-24T02:33:43;7.78;;;6.97;;
20073;SDS011;10197;54.282;10.078;2023-04-24T02:36:09;8.00;;;7.20;;
20073;SDS011;10197;54.282;10.078;2023-04-24T02:38:36;7.65;;;6.95;;
20073;SDS011;10197;54.282;10.078;2023-04-24T02:41:04;8.52;;;6.63;;
20073;SDS011;10197;54.282;10.078;2023-04-24T02:43:32;8.77;;;7.85;;
20073;SDS011;10197;54.282;10.078;2023-04-24T02:45:59;8.40;;;7.55;;
20073;SDS011;10197;54.282;10.078;2023-04-24T02:48:27;8.00;;;7.30;;
20073;SDS011;10197;54.282;10.078;2023-04-24T02:50:54;10.10;;;7.72;;
20073;SDS011;10197;54.282;10.078;2023-04-24T02:53:21;9.02;;;7.70;;
20073;SDS011;10197;54.282;10.078;2023-04-24T02:55:48;9.65;;;7.63;;
20073;SDS011;10197;54.282;10.078;2023-04-24T02:58:15;8.80;;;8.00;;
20073;SDS011;10197;54.282;10.078;2023-04-24T03:00:42;8.00;;;7.20;;
20073;SDS011;10197;54.282;10.078;2023-04-24T03:03:09;7.72;;;7.03;;
20073;SDS011;10197;54.282;10.078;2023-04-24T03:05:38;8.15;;;7.35;;
20073;SDS011;10197;54.282;10.078;2023-04-24T03:08:04;7.85;;;7.10;;
20073;SDS011;10197;54.282;10.078;2023-04-24T03:10:32;6.93;;;6.25;;
20073;SDS011;10197;54.282;10.078;2023-04-24T03:12:58;7.30;;;6.70;;
20073;SDS011;10197;54.282;10.078;2023-04-24T03:15:26;9.15;;;7.25;;
20073;SDS011;10197;54.282;10.078;2023-04-24T03:17:53;8.00;;;6.50;;
20073;SDS011;10197;54.282;10.078;2023-04-24T03:20:20;8.52;;;7.70;;
20073;SDS011;10197;54.282;10.078;2023-04-24T03:22:49;7.18;;;6.47;;
20073;SDS011;10197;54.282;10.078;2023-04-24T03:25:16;10.98;;;7.18;;
20073;SDS011;10197;54.282;10.078;2023-04-24T03:27:46;9.32;;;7.95;;
20073;SDS011;10197;54.282;10.078;2023-04-24T03:30:36;8.40;;;6.95;;
20073;SDS011;10197;54.282;10.078;2023-04-24T03:33:06;8.05;;;6.18;;
20073;SDS011;10197;54.282;10.078;2023-04-24T03:35:36;10.55;;;7.00;;
20073;SDS011;10197;54.282;10.078;2023-04-24T03:38:09;6.50;;;5.65;;
20073;SDS011;10197;54.282;10.078;2023-04-24T03:41:08;6.95;;;6.35;;
20073;SDS011;10197;54.282;10.078;2023-04-24T03:43:40;6.72;;;6.13;;
20073;SDS011;10197;54.282;10.078;2023-04-24T03:46:07;7.03;;;6.22;;
20073;SDS011;10197;54.282;10.078;2023-04-24T03:48:39;6.22;;;5.63;;
20073;SDS011;10197;54.282;10.078;2023-04-24T03:51:07;6.57;;;5.93;;
20073;SDS011;10197;54.282;10.078;2023-04-24T03:53:37;6.78;;;6.18;;
20073;SDS011;10197;54.282;10.078;2023-04-24T03:56:06;7.18;;;5.93;;
20073;SDS011;10197;54.282;10.078;2023-04-24T03:58:33;7.80;;;6.60;;
20073;SDS011;10197;54.282;10.078;2023-04-24T04:01:00;7.20;;;6.50;;
20073;SDS011;10197;54.282;10.078;2023-04-24T04:03:52;7.63;;;6.70;;
20073;SDS011;10197;54.282;10.078;2023-04-24T04:06:23;6.78;;;6.10;;
20073;SDS011;10197;54.282;10.078;2023-04-24T04:08:53;7.80;;;7.00;;
20073;SDS011;10197;54.282;10.078;2023-04-24T04:11:20;6.65;;;5.80;;
20073;SDS011;10197;54.282;10.078;2023-04-24T04:13:47;6.95;;;6.18;;
20073;SDS011;10197;54.282;10.078;2023-04-24T04:16:16;7.22;;;6.10;;
20073;SDS011;10197;54.282;10.078;2023-04-24T04:18:44;6.90;;;6.25;;
20073;SDS011;10197;54.282;10.078;2023-04-24T04:21:12;6.80;;;6.18;;
20073;SDS011;10197;54.282;10.078;2023-04-24T04:23:40;7.07;;;6.40;;
20073;SDS011;10197;54.282;10.078;2023-04-24T04:26:19;6.95;;;6.32;;
20073;SDS011;10197;54.282;10.078;2023-04-24T04:29:18;6.38;;;5.35;;
20073;SDS011;10197;54.282;10.078;2023-04-24T04:31:48;6.50;;;5.03;;
20073;SDS011;10197;54.282;10.078;2023-04-24T04:34:16;5.28;;;4.78;;
20073;SDS011;10197;54.282;10.078;2023-04-24T04:36:44;4.57;;;4.18;;
20073;SDS011;10197;54.282;10.078;2023-04-24T04:39:35;5.80;;;4.40;;
20073;SDS011;10197;54.282;10.078;2023-04-24T04:42:06;4.57;;;4.18;;
20073;SDS011;10197;54.282;10.078;2023-04-24T04:44:42;5.53;;;4.40;;
20073;SDS011;10197;54.282;10.078;2023-04-24T04:47:15;4.88;;;4.22;;
20073;SDS011;10197;54.282;10.078;2023-04-24T04:49:43;7.57;;;5.65;;
20073;SDS011;10197;54.282;10.078;2023-04-24T04:52:19;6.35;;;4.18;;
20073;SDS011;10197;54.282;10.078;2023-04-24T04:54:54;5.43;;;4.00;;
20073;SDS011;10197;54.282;10.078;2023-04-24T04:57:26;4.13;;;3.78;;
20073;SDS011;10197;54.282;10.078;2023-04-24T04:59:53;5.05;;;4.07;;
20073;SDS011;10197;54.282;10.078;2023-04-24T05:02:33;4.20;;;3.80;;
20073;SDS011;10197;54.282;10.078;2023-04-24T05:05:00;3.72;;;3.40;;
20073;SDS011;10197;54.282;10.078;2023-04-24T05:07:28;3.42;;;3.13;;
20073;SDS011;10197;54.282;10.078;2023-04-24T05:09:55;3.15;;;2.88;;
20073;SDS011;10197;54.282;10.078;2023-04-24T05:12:22;3.20;;;2.90;;
20073;SDS011;10197;54.282;10.078;2023-04-24T05:14:53;4.88;;;3.75;;
20073;SDS011;10197;54.282;10.078;2023-04-24T05:17:20;4.07;;;3.78;;
20073;SDS011;10197;54.282;10.078;2023-04-24T05:19:47;3.60;;;3.30;;
20073;SDS011;10197;54.282;10.078;2023-04-24T05:22:15;3.70;;;3.38;;
20073;SDS011;10197;54.282;10.078;2023-04-24T05:24:49;4.82;;;3.60;;
20073;SDS011;10197;54.282;10.078;2023-04-24T05:27:32;3.75;;;3.42;;
20073;SDS011;10197;54.282;10.078;2023-04-24T05:30:02;3.70;;;3.40;;
20073;SDS011;10197;54.282;10.078;2023-04-24T05:32:29;3.83;;;3.38;;
20073;SDS011;10197;54.282;10.078;2023-04-24T05:34:56;3.90;;;3.50;;
20073;SDS011;10197;54.282;10.078;2023-04-24T05:37:24;3.10;;;2.90;;
20073;SDS011;10197;54.282;10.078;2023-04-24T05:39:52;4.22;;;3.80;;
20073;SDS011;10197;54.282;10.078;2023-04-24T05:42:19;4.07;;;3.72;;
20073;SDS011;10197;54.282;10.078;2023-04-24T05:44:46;4.70;;;4.30;;
20073;SDS011;10197;54.282;10.078;2023-04-24T05:47:14;4.38;;;4.05;;
20073;SDS011;10197;54.282;10.078;2023-04-24T05:49:42;3.67;;;3.38;;
20073;SDS011;10197;54.282;10.078;2023-04-24T05:52:18;4.78;;;4.38;;
20073;SDS011;10197;54.282;10.078;2023-04-24T05:55:22;4.13;;;3.70;;
20073;SDS011;10197;54.282;10.078;2023-04-24T05:57:50;4.35;;;3.45;;
20073;SDS011;10197;54.282;10.078;2023-04-24T06:00:17;3.92;;;3.58;;
20073;SDS011;10197;54.282;10.078;2023-04-24T06:02:53;4.28;;;3.53;;
20073;SDS011;10197;54.282;10.078;2023-04-24T06:05:21;4.15;;;3.85;;
20073;SDS011;10197;54.282;10.078;2023-04-24T06:07:47;4.10;;;3.63;;
20073;SDS011;10197;54.282;10.078;2023-04-24T06:10:15;3.80;;;3.50;;
20073;SDS011;10197;54.282;10.078;2023-04-24T06:12:43;4.07;;;3.13;;
20073;SDS011;10197;54.282;10.078;2023-04-24T06:15:15;5.00;;;3.20;;
20073;SDS011;10197;54.282;10.078;2023-04-24T06:17:58;3.25;;;2.97;;
20073;SDS011;10197;54.282;10.078;2023-04-24T06:20:26;4.45;;;3.78;;
20073;SDS011;10197;54.282;10.078;2023-04-24T06:22:53;3.67;;;3.38;;
20073;SDS011;10197;54.282;10.078;2023-04-24T06:25:20;4.20;;;3.55;;
20073;SDS011;10197;54.282;10.078;2023-04-24T06:27:49;3.50;;;3.10;;
20073;SDS011;10197;54.282;10.078;2023-04-24T06:30:16;4.32;;;3.55;;
20073;SDS011;10197;54.282;10.078;2023-04-24T06:32:43;3.22;;;3.00;;
20073;SDS011;10197;54.282;10.078;2023-04-24T06:35:12;3.20;;;3.00;;
20073;SDS011;10197;54.282;10.078;2023-04-24T06:37:39;3.25;;;2.95;;
20073;SDS011;10197;54.282;10.078;2023-04-24T06:40:06;7.60;;;4.10;;
20073;SDS011;10197;54.282;10.078;2023-04-24T06:42:34;3.60;;;3.30;;
20073;SDS011;10197;54.282;10.078;2023-04-24T06:45:03;4.63;;;3.35;;
20073;SDS011;10197;54.282;10.078;2023-04-24T06:47:30;3.50;;;3.20;;
20073;SDS011;10197;54.282;10.078;2023-04-24T06:49:57;3.30;;;3.00;;
20073;SDS011;10197;54.282;10.078;2023-04-24T06:52:25;3.45;;;2.90;;
20073;SDS011;10197;54.282;10.078;2023-04-24T06:54:52;3.20;;;3.00;;
20073;SDS011;10197;54.282;10.078;2023-04-24T06:57:27;3.55;;;3.25;;
20073;SDS011;10197;54.282;10.078;2023-04-24T06:59:53;3.50;;;3.05;;
20073;SDS011;10197;54.282;10.078;2023-04-24T07:02:20;4.45;;;3.58;;
20073;SDS011;10197;54.282;10.078;2023-04-24T07:04:47;4.47;;;3.28;;
20073;SDS011;10197;54.282;10.078;2023-04-24T07:07:15;3.85;;;3.40;;
20073;SDS011;10197;54.282;10.078;2023-04-24T07:09:43;3.90;;;3.60;;
20073;SDS011;10197;54.282;10.078;2023-04-24T07:12:10;3.60;;;3.40;;
20073;SDS011;10197;54.282;10.078;2023-04-24T07:14:39;4.03;;;3.42;;
20073;SDS011;10197;54.282;10.078;2023-04-24T07:17:06;3.85;;;3.15;;
20073;SDS011;10197;54.282;10.078;2023-04-24T07:19:33;3.40;;;3.10;;
20073;SDS011;10197;54.282;10.078;2023-04-24T07:22:00;3.70;;;3.15;;
20073;SDS011;10197;54.282;10.078;2023-04-24T07:24:28;3.30;;;3.05;;
20073;SDS011;10197;54.282;10.078;2023-04-24T07:26:58;3.10;;;2.80;;
20073;SDS011;10197;54.282;10.078;2023-04-24T07:29:26;3.95;;;3.63;;
20073;SDS011;10197;54.282;10.078;2023-04-24T07:31:53;3.60;;;3.30;;
20073;SDS011;10197;54.282;10.078;2023-04-24T07:34:21;3.13;;;2.70;;
20073;SDS011;10197;54.282;10.078;2023-04-24T07:36:48;3.60;;;3.30;;
20073;SDS011;10197;54.282;10.078;2023-04-24T07:39:15;3.42;;;3.17;;
20073;SDS011;10197;54.282;10.078;2023-04-24T07:41:42;3.80;;;3.50;;
20073;SDS011;10197;54.282;10.078;2023-04-24T07:44:14;3.60;;;3.20;;
20073;SDS011;10197;54.282;10.078;2023-04-24T07:46:40;4.55;;;3.65;;
20073;SDS011;10197;54.282;10.078;2023-04-24T07:49:07;4.68;;;3.60;;
20073;SDS011;10197;54.282;10.078;2023-04-24T07:51:34;3.45;;;3.15;;
20073;SDS011;10197;54.282;10.078;2023-04-24T07:54:03;3.65;;;3.35;;
20073;SDS011;10197;54.282;10.078;2023-04-24T07:56:30;4.15;;;3.33;;
20073;SDS011;10197;54.282;10.078;2023-04-24T07:58:58;3.97;;;3.50;;
20073;SDS011;10197;54.282;10.078;2023-04-24T08:01:26;3.60;;;3.30;;
20073;SDS011;10197;54.282;10.078;2023-04-24T08:03:53;4.50;;;4.03;;
20073;SDS011;10197;54.282;10.078;2023-04-24T08:06:20;3.22;;;3.00;;
20073;SDS011;10197;54.282;10.078;2023-04-24T08:08:48;3.60;;;3.30;;
20073;SDS011;10197;54.282;10.078;2023-04-24T08:11:16;4.20;;;3.90;;
20073;SDS011;10197;54.282;10.078;2023-04-24T08:13:42;4.53;;;3.60;;
20073;SDS011;10197;54.282;10.078;2023-04-24T08:16:10;3.90;;;3.60;;
20073;SDS011;10197;54.282;10.078;2023-04-24T08:18:38;4.82;;;3.78;;
20073;SDS011;10197;54.282;10.078;2023-04-24T08:21:07;3.60;;;3.30;;
20073;SDS011;10197;54.282;10.078;2023-04-24T08:23:33;4.03;;;3.70;;
20073;SDS011;10197;54.282;10.078;2023-04-24T08:26:00;4.38;;;3.97;;
20073;SDS011;10197;54.282;10.078;2023-04-24T08:28:28;4.00;;;3.70;;
20073;SDS011;10197;54.282;10.078;2023-04-24T08:30:55;4.63;;;4.22;;
20073;SDS011;10197;54.282;10.078;2023-04-24T08:33:22;4.65;;;4.20;;
20073;SDS011;10197;54.282;10.078;2023-04-24T08:35:50;4.45;;;4.05;;
20073;SDS011;10197;54.282;10.078;2023-04-24T08:38:17;4.90;;;4.50;;
20073;SDS011;10197;54.282;10.078;2023-04-24T08:40:44;5.28;;;4.80;;
20073;SDS011;10197;54.282;10.078;2023-04-24T08:43:13;9.05;;;5.05;;
20073;SDS011;10197;54.282;10.078;2023-04-24T08:45:40;5.13;;;4.63;;
20073;SDS011;10197;54.282;10.078;2023-04-24T08:48:07;5.47;;;4.63;;
20073;SDS011;10197;54.282;10.078;2023-04-24T08:50:35;5.32;;;4.80;;
20073;SDS011;10197;54.282;10.078;2023-04-24T08:53:03;5.43;;;5.00;;
20073;SDS011;10197;54.282;10.078;2023-04-24T08:55:31;6.68;;;5.00;;
20073;SDS011;10197;54.282;10.078;2023-04-24T08:57:59;5.40;;;4.90;;
20073;SDS011;10197;54.282;10.078;2023-04-24T09:00:26;6.22;;;5.07;;
20073;SDS011;10197;54.282;10.078;2023-04-24T09:02:53;5.97;;;5.47;;
20073;SDS011;10197;54.282;10.078;2023-04-24T09:05:21;7.07;;;5.57;;
20073;SDS011;10197;54.282;10.078;2023-04-24T09:07:49;6.22;;;5.63;;
20073;SDS011;10197;54.282;10.078;2023-04-24T09:10:22;5.88;;;4.85;;
20073;SDS011;10197;54.282;10.078;2023-04-24T09:12:50;5.72;;;5.22;;
20073;SDS011;10197;54.282;10.078;2023-04-24T09:15:17;6.13;;;5.55;;
20073;SDS011;10197;54.282;10.078;2023-04-24T09:17:45;5.95;;;5.45;;
20073;SDS011;10197;54.282;10.078;2023-04-24T09:20:15;5.70;;;5.10;;
20073;SDS011;10197;54.282;10.078;2023-04-24T09:22:44;6.13;;;5.40;;
20073;SDS011;10197;54.282;10.078;2023-04-24T09:25:11;6.25;;;5.10;;
20073;SDS011;10197;54.282;10.078;2023-04-24T09:27:42;6.32;;;5.72;;
20073;SDS011;10197;54.282;10.078;2023-04-24T09:30:10;7.53;;;6.32;;
20073;SDS011;10197;54.282;10.078;2023-04-24T09:32:37;7.60;;;6.90;;
20073;SDS011;10197;54.282;10.078;2023-04-24T09:35:06;8.15;;;7.25;;
20073;SDS011;10197;54.282;10.078;2023-04-24T09:37:37;8.48;;;7.65;;
20073;SDS011;10197;54.282;10.078;2023-04-24T09:42:53;9.50;;;8.70;;
20073;SDS011;10197;54.282;10.078;2023-04-24T09:45:22;9.65;;;8.82;;
20073;SDS011;10197;54.282;10.078;2023-04-24T09:47:51;10.02;;;7.60;;
20073;SDS011;10197;54.282;10.078;2023-04-24T09:50:19;8.35;;;7.55;;
20073;SDS011;10197;54.282;10.078;2023-04-24T09:52:55;7.38;;;6.57;;
20073;SDS011;10197;54.282;10.078;2023-04-24T09:55:23;8.48;;;7.68;;
20073;SDS011;10197;54.282;10.078;2023-04-24T09:57:50;8.32;;;7.43;;
20073;SDS011;10197;54.282;10.078;2023-04-24T10:00:21;7.97;;;7.18;;
20073;SDS011;10197;54.282;10.078;2023-04-24T10:02:53;8.20;;;7.50;;
20073;SDS011;10197;54.282;10.078;2023-04-24T10:05:24;7.60;;;6.90;;
20073;SDS011;10197;54.282;10.078;2023-04-24T10:07:56;7.93;;;7.22;;
20073;SDS011;10197;54.282;10.078;2023-04-24T10:10:23;8.75;;;7.43;;
20073;SDS011;10197;54.282;10.078;2023-04-24T10:12:50;8.18;;;7.43;;
20073;SDS011;10197;54.282;10.078;2023-04-24T10:15:19;7.60;;;6.90;;
20073;SDS011;10197;54.282;10.078;2023-04-24T10:17:49;7.80;;;7.10;;
20073;SDS011;10197;54.282;10.078;2023-04-24T10:20:23;8.10;;;7.30;;
20073;SDS011;10197;54.282;10.078;2023-04-24T10:22:58;8.07;;;7.28;;
20073;SDS011;10197;54.282;10.078;2023-04-24T10:25:26;7.80;;;7.00;;
20073;SDS011;10197;54.282;10.078;2023-04-24T10:27:59;7.88;;;7.15;;
20073;SDS011;10197;54.282;10.078;2023-04-24T10:30:29;8.60;;;7.80;;
20073;SDS011;10197;54.282;10.078;2023-04-24T10:33:04;8.88;;;7.00;;
20073;SDS011;10197;54.282;10.078;2023-04-24T10:35:36;7.65;;;6.95;;
20073;SDS011;10197;54.282;10.078;2023-04-24T10:38:09;8.82;;;8.02;;
20073;SDS011;10197;54.282;10.078;2023-04-24T10:40:49;8.57;;;7.75;;
20073;SDS011;10197;54.282;10.078;2023-04-24T10:43:30;12.07;;;7.80;;
20073;SDS011;10197;54.282;10.078;2023-04-24T10:46:04;7.50;;;6.78;;
20073;SDS011;10197;54.282;10.078;2023-04-24T10:48:32;8.80;;;7.90;;
20073;SDS011;10197;54.282;10.078;2023-04-24T10:50:59;9.13;;;7.88;;
20073;SDS011;10197;54.282;10.078;2023-04-24T10:53:28;7.85;;;7.05;;
20073;SDS011;10197;54.282;10.078;2023-04-24T10:55:57;7.95;;;7.20;;
20073;SDS011;10197;54.282;10.078;2023-04-24T10:58:36;9.18;;;7.65;;
20073;SDS011;10197;54.282;10.078;2023-04-24T11:01:08;8.05;;;7.35;;
20073;SDS011;10197;54.282;10.078;2023-04-24T11:03:54;7.82;;;7.13;;
20073;SDS011;10197;54.282;10.078;2023-04-24T11:06:28;8.32;;;7.53;;
20073;SDS011;10197;54.282;10.078;2023-04-24T11:08:59;8.43;;;7.63;;
20073;SDS011;10197;54.282;10.078;2023-04-24T11:11:30;8.13;;;7.32;;
20073;SDS011;10197;54.282;10.078;2023-04-24T11:14:04;8.40;;;7.70;;
20073;SDS011;10197;54.282;10.078;2023-04-24T11:16:33;9.73;;;8.70;;
20073;SDS011;10197;54.282;10.078;2023-04-24T11:19:03;10.18;;;9.20;;
20073;SDS011;10197;54.282;10.078;2023-04-24T11:21:32;9.15;;;8.23;;
20073;SDS011;10197;54.282;10.078;2023-04-24T11:26:57;9.35;;;8.48;;
20073;SDS011;10197;54.282;10.078;2023-04-24T11:29:42;10.18;;;9.23;;
20073;SDS011;10197;54.282;10.078;2023-04-24T11:32:14;11.05;;;9.73;;
20073;SDS011;10197;54.282;10.078;2023-04-24T11:34:45;11.60;;;8.93;;
20073;SDS011;10197;54.282;10.078;2023-04-24T11:37:12;9.90;;;9.00;;
20073;SDS011;10197;54.282;10.078;2023-04-24T11:39:39;10.10;;;8.93;;
20073;SDS011;10197;54.282;10.078;2023-04-24T11:42:06;11.27;;;10.23;;
20073;SDS011;10197;54.282;10.078;2023-04-24T11:44:33;11.82;;;9.98;;
20073;SDS011;10197;54.282;10.078;2023-04-24T11:47:04;10.68;;;9.57;;
20073;SDS011;10197;54.282;10.078;2023-04-24T11:49:31;12.05;;;10.95;;
20073;SDS011;10197;54.282;10.078;2023-04-24T11:51:57;10.85;;;9.75;;
20073;SDS011;10197;54.282;10.078;2023-04-24T11:54:29;11.85;;;10.65;;
20073;SDS011;10197;54.282;10.078;2023-04-24T11:56:56;10.32;;;9.23;;
20073;SDS011;10197;54.282;10.078;2023-04-24T11:59:23;11.70;;;10.32;;
20073;SDS011;10197;54.282;10.078;2023-04-24T12:01:50;11.00;;;9.90;;
20073;SDS011;10197;54.282;10.078;2023-04-24T12:04:18;12.23;;;9.27;;
20073;SDS011;10197;54.282;10.078;2023-04-24T12:09:39;11.15;;;9.32;;
20073;SDS011;10197;54.282;10.078;2023-04-24T12:12:07;12.07;;;9.57;;
20073;SDS011;10197;54.282;10.078;2023-04-24T12:14:41;11.35;;;10.10;;
20073;SDS011;10197;54.282;10.078;2023-04-24T12:17:09;11.32;;;10.18;;
20073;SDS011;10197;54.282;10.078;2023-04-24T12:19:37;11.43;;;9.90;;
20073;SDS011;10197;54.282;10.078;2023-04-24T12:22:05;12.82;;;10.65;;
20073;SDS011;10197;54.282;10.078;2023-04-24T12:24:32;11.52;;;10.32;;
20073;SDS011;10197;54.282;10.078;2023-04-24T12:26:59;12.38;;;11.05;;
20073;SDS011;10197;54.282;10.078;2023-04-24T12:29:26;12.38;;;10.90;;
20073;SDS011;10197;54.282;10.078;2023-04-24T12:31:53;13.30;;;11.52;;
20073;SDS011;10197;54.282;10.078;2023-04-24T12:34:20;14.13;;;10.63;;
20073;SDS011;10197;54.282;10.078;2023-04-24T12:36:50;11.25;;;10.13;;
20073;SDS011;10197;54.282;10.078;2023-04-24T12:39:16;16.83;;;11.45;;
20073;SDS011;10197;54.282;10.078;2023-04-24T12:41:51;11.25;;;10.10;;
20073;SDS011;10197;54.282;10.078;2023-04-24T12:44:28;10.68;;;9.60;;
20073;SDS011;10197;54.282;10.078;2023-04-24T12:46:56;11.50;;;10.32;;
20073;SDS011;10197;54.282;10.078;2023-04-24T12:49:23;11.00;;;9.90;;
20073;SDS011;10197;54.282;10.078;2023-04-24T12:51:51;10.88;;;9.15;;
20073;SDS011;10197;54.282;10.078;2023-04-24T12:54:18;11.25;;;10.23;;
20073;SDS011;10197;54.282;10.078;2023-04-24T12:56:45;11.27;;;10.18;;
20073;SDS011;10197;54.282;10.078;2023-04-24T12:59:11;13.30;;;10.43;;
20073;SDS011;10197;54.282;10.078;2023-04-24T13:01:38;12.00;;;10.80;;
20073;SDS011;10197;54.282;10.078;2023-04-24T13:04:05;13.65;;;11.82;;
20073;SDS011;10197;54.282;10.078;2023-04-24T13:06:32;16.10;;;12.40;;
20073;SDS011;10197;54.282;10.078;2023-04-24T13:09:01;16.60;;;12.43;;
20073;SDS011;10197;54.282;10.078;2023-04-24T13:11:28;13.98;;;12.35;;
20073;SDS011;10197;54.282;10.078;2023-04-24T13:13:56;18.13;;;12.20;;
20073;SDS011;10197;54.282;10.078;2023-04-24T13:16:23;17.48;;;14.05;;
20073;SDS011;10197;54.282;10.078;2023-04-24T13:18:49;15.52;;;11.95;;
20073;SDS011;10197;54.282;10.078;2023-04-24T13:21:16;17.38;;;15.00;;
20073;SDS011;10197;54.282;10.078;2023-04-24T13:23:43;17.70;;;13.55;;
20073;SDS011;10197;54.282;10.078;2023-04-24T13:26:11;20.00;;;13.70;;
20073;SDS011;10197;54.282;10.078;2023-04-24T13:28:38;14.95;;;11.93;;
20073;SDS011;10197;54.282;10.078;2023-04-24T13:31:05;16.52;;;13.85;;
20073;SDS011;10197;54.282;10.078;2023-04-24T13:33:32;15.43;;;12.45;;
20073;SDS011;10197;54.282;10.078;2023-04-24T13:36:00;15.13;;;13.10;;
20073;SDS011;10197;54.282;10.078;2023-04-24T13:38:27;16.67;;;13.10;;
20073;SDS011;10197;54.282;10.078;2023-04-24T13:40:54;13.60;;;12.05;;
20073;SDS011;10197;54.282;10.078;2023-04-24T13:43:26;15.90;;;13.10;;
20073;SDS011;10197;54.282;10.078;2023-04-24T13:45:53;14.60;;;12.98;;
20073;SDS011;10197;54.282;10.078;2023-04-24T13:48:20;14.63;;;13.05;;
20073;SDS011;10197;54.282;10.078;2023-04-24T13:50:47;16.35;;;12.82;;
20073;SDS011;10197;54.282;10.078;2023-04-24T13:53:14;14.23;;;11.98;;
20073;SDS011;10197;54.282;10.078;2023-04-24T13:55:41;15.35;;;12.57;;
20073;SDS011;10197;54.282;10.078;2023-04-24T13:58:08;14.55;;;12.35;;
20073;SDS011;10197;54.282;10.078;2023-04-24T14:00:37;16.50;;;12.48;;
20073;SDS011;10197;54.282;10.078;2023-04-24T14:03:04;12.63;;;11.02;;
20073;SDS011;10197;54.282;10.078;2023-04-24T14:05:31;12.02;;;10.63;;
20073;SDS011;10197;54.282;10.078;2023-04-24T14:07:58;14.32;;;11.27;;
20073;SDS011;10197;54.282;10.078;2023-04-24T14:10:25;13.57;;;11.18;;
20073;SDS011;10197;54.282;10.078;2023-04-24T14:12:52;13.73;;;10.68;;
20073;SDS011;10197;54.282;10.078;2023-04-24T14:15:19;12.85;;;10.52;;
20073;SDS011;10197;54.282;10.078;2023-04-24T14:17:48;13.25;;;11.85;;
20073;SDS011;10197;54.282;10.078;2023-04-24T14:20:15;14.10;;;11.38;;
20073;SDS011;10197;54.282;10.078;2023-04-24T14:22:42;11.85;;;10.65;;
20073;SDS011;10197;54.282;10.078;2023-04-24T14:25:09;13.95;;;12.50;;
20073;SDS011;10197;54.282;10.078;2023-04-24T14:27:36;13.00;;;11.55;;
20073;SDS011;10197;54.282;10.078;2023-04-24T14:30:03;13.75;;;10.95;;
20073;SDS011;10197;54.282;10.078;2023-04-24T14:32:31;12.05;;;10.48;;
20073;SDS011;10197;54.282;10.078;2023-04-24T14:35:00;11.13;;;9.43;;
20073;SDS011;10197;54.282;10.078;2023-04-24T14:37:43;12.45;;;10.68;;
20073;SDS011;10197;54.282;10.078;2023-04-24T14:40:10;11.20;;;9.90;;
20073;SDS011;10197;54.282;10.078;2023-04-24T14:42:39;12.52;;;10.75;;
20073;SDS011;10197;54.282;10.078;2023-04-24T14:45:07;14.55;;;11.50;;
20073;SDS011;10197;54.282;10.078;2023-04-24T14:47:36;12.88;;;11.40;;